Sacramento, California
Traffic Map
Current Weather Conditions
Sacramento, California
Clear
Clear
43°
Feels Like: 43°
Wind Chill: 43° Ceiling: Unl
Heat Index: 43° Visibility: 10mi
Dew Point: 22° Wind: 3mph
Humidity: 43% Direction: 210° (SSW)
Pressure: 30.19in Gusts: 0mph
Raw Report DataKSAC 210353Z 21003KT 10SM CLR 06/M06 A3019 RMK AO2 SLP222 T00611056
Traffic Incident Summary
Active as of:
Severity:
Category:
InformationThere was an issue retrieving the traffic information for this location. Please try a different location or try again shortly.
Advertisements